createdAt,value
2018-07-27T00:00:01.276Z,80.81
2018-07-27T00:01:02.043Z,81.29
2018-07-27T00:02:01.357Z,80.81
2018-07-27T00:03:01.408Z,80.91
2018-07-27T00:04:01.463Z,80.52
2018-07-27T00:05:01.513Z,80.96
2018-07-27T00:06:01.603Z,81.25
2018-07-27T00:07:01.615Z,80.58
2018-07-27T00:08:01.671Z,80.48
2018-07-27T00:09:01.718Z,80.29
2018-07-27T00:10:01.769Z,81.93
2018-07-27T00:11:01.857Z,80.96
2018-07-27T00:12:01.873Z,80.96
2018-07-27T00:13:01.929Z,82.21
2018-07-27T00:14:01.976Z,80.87
2018-07-27T00:15:02.029Z,82.02
2018-07-27T00:16:02.108Z,82.98
2018-07-27T00:17:02.159Z,82.27
2018-07-27T00:18:02.181Z,81.98
2018-07-27T00:19:02.234Z,82.37
2018-07-27T00:20:02.285Z,83.42
2018-07-27T00:21:02.339Z,82.85
2018-07-27T00:22:02.411Z,83.62
2018-07-27T00:23:02.440Z,84.00
2018-07-27T00:24:02.498Z,83.91
2018-07-27T00:25:02.542Z,83.42
2018-07-27T00:26:02.593Z,83.52
2018-07-27T00:27:02.671Z,84.58
2018-07-27T00:28:02.702Z,84.77
2018-07-27T00:29:02.747Z,85.35
2018-07-27T00:30:02.797Z,86.12
2018-07-27T00:31:02.852Z,86.60
2018-07-27T00:32:02.927Z,85.54
2018-07-27T00:33:02.987Z,85.54
2018-07-27T00:34:03.004Z,84.77
2018-07-27T00:35:03.055Z,84.97
2018-07-27T00:36:03.111Z,85.74
2018-07-27T00:37:03.159Z,85.44
2018-07-27T00:38:03.234Z,85.44
2018-07-27T00:39:03.261Z,86.02
2018-07-27T00:40:03.318Z,85.16
2018-07-27T00:41:03.364Z,84.67
2018-07-27T00:42:03.418Z,84.58
2018-07-27T00:43:03.491Z,85.54
2018-07-27T00:44:03.518Z,86.02
2018-07-27T00:45:03.570Z,86.69
2018-07-27T00:46:03.620Z,84.63
2018-07-27T00:47:03.675Z,86.18
2018-07-27T00:48:03.747Z,85.98
2018-07-27T00:49:03.798Z,87.13
2018-07-27T00:50:03.833Z,87.42
2018-07-27T00:51:03.876Z,86.75
2018-07-27T00:52:03.929Z,85.69
2018-07-27T00:53:04.012Z,86.36
2018-07-27T00:54:04.046Z,86.36
2018-07-27T00:55:04.113Z,86.56
2018-07-27T00:56:04.134Z,86.46
2018-07-27T00:57:04.185Z,87.33
2018-07-27T00:58:04.237Z,87.33
2018-07-27T00:59:04.286Z,86.75
2018-07-27T01:00:04.360Z,86.75
2018-07-27T01:01:04.402Z,86.22
2018-07-27T01:02:04.441Z,87.57
2018-07-27T01:03:04.527Z,86.80
2018-07-27T01:04:05.359Z,88.15
2018-07-27T01:05:04.595Z,86.52
2018-07-27T01:06:04.669Z,87.19
2018-07-27T01:07:04.697Z,88.73
2018-07-27T01:08:04.773Z,88.92
2018-07-27T01:09:04.799Z,88.53
2018-07-27T01:10:04.850Z,88.63
2018-07-27T01:11:04.934Z,88.44
2018-07-27T01:12:04.955Z,89.69
2018-07-27T01:13:05.004Z,88.06
2018-07-27T01:14:05.052Z,89.40
2018-07-27T01:15:05.104Z,89.74
2018-07-27T01:16:05.179Z,89.40
2018-07-27T01:17:05.207Z,87.76
2018-07-27T01:18:05.261Z,88.34
2018-07-27T01:19:05.334Z,90.55
2018-07-27T01:20:05.362Z,88.15
2018-07-27T01:21:05.414Z,88.92
2018-07-27T01:22:05.463Z,89.11
2018-07-27T01:23:05.518Z,88.92
2018-07-27T01:24:05.591Z,89.98
2018-07-27T01:25:05.615Z,89.59
2018-07-27T01:26:05.668Z,89.21
2018-07-27T01:27:05.716Z,90.36
2018-07-27T01:28:05.768Z,89.69
2018-07-27T01:29:05.842Z,89.21
2018-07-27T01:30:05.873Z,89.30
2018-07-27T01:31:05.921Z,89.59
2018-07-27T01:32:05.974Z,89.69
2018-07-27T01:33:06.055Z,89.74
2018-07-27T01:34:06.073Z,89.69
2018-07-27T01:35:06.124Z,90.26
2018-07-27T01:36:06.177Z,90.31
2018-07-27T01:37:06.227Z,90.36
2018-07-27T01:38:06.301Z,90.65
2018-07-27T01:39:06.370Z,90.65
2018-07-27T01:40:06.380Z,90.17
2018-07-27T01:41:06.430Z,90.55
2018-07-27T01:42:06.484Z,91.13
2018-07-27T01:43:06.532Z,91.13
2018-07-27T01:44:06.608Z,91.03
2018-07-27T01:45:06.637Z,91.71
2018-07-27T01:46:06.688Z,90.84
2018-07-27T01:47:06.737Z,91.13
2018-07-27T01:48:06.811Z,91.52
2018-07-27T01:49:06.843Z,91.32
2018-07-27T01:50:06.920Z,90.94
2018-07-27T01:51:07.016Z,91.61
2018-07-27T01:52:06.993Z,90.84
2018-07-27T01:53:07.042Z,90.75
2018-07-27T01:54:07.091Z,91.66
2018-07-27T01:55:07.166Z,90.80
2018-07-27T01:56:07.197Z,91.56
2018-07-27T01:57:07.246Z,92.33
2018-07-27T01:58:07.298Z,91.95
2018-07-27T01:59:07.379Z,90.60
2018-07-27T02:00:07.396Z,92.33
2018-07-27T02:01:07.448Z,93.19
2018-07-27T02:02:07.503Z,93.29
2018-07-27T02:03:07.549Z,93.24
2018-07-27T02:04:07.642Z,92.05
2018-07-27T02:05:07.651Z,92.24
2018-07-27T02:06:07.768Z,92.76
2018-07-27T02:07:07.753Z,92.29
2018-07-27T02:08:07.808Z,92.57
2018-07-27T02:09:07.892Z,93.44
2018-07-27T02:10:07.905Z,92.38
2018-07-27T02:11:07.958Z,92.57
2018-07-27T02:12:08.011Z,93.15
2018-07-27T02:13:08.120Z,93.87
2018-07-27T02:14:08.135Z,93.91
2018-07-27T02:15:08.162Z,94.06
2018-07-27T02:16:08.234Z,93.63
2018-07-27T02:17:08.262Z,94.30
2018-07-27T02:18:08.311Z,94.26
2018-07-27T02:19:08.364Z,93.01
2018-07-27T02:20:08.415Z,94.26
2018-07-27T02:21:08.497Z,94.26
2018-07-27T02:22:08.519Z,94.01
2018-07-27T02:23:08.569Z,94.59
2018-07-27T02:24:08.618Z,92.76
2018-07-27T02:25:08.668Z,94.40
2018-07-27T02:26:08.741Z,94.40
2018-07-27T02:27:08.776Z,92.57
2018-07-27T02:28:08.819Z,94.06
2018-07-27T02:29:08.872Z,93.10
2018-07-27T02:30:08.925Z,93.96
2018-07-27T02:31:08.996Z,94.16
2018-07-27T02:32:09.026Z,94.73
2018-07-27T02:33:09.103Z,94.26
2018-07-27T02:34:09.125Z,93.96
2018-07-27T02:35:09.177Z,94.73
2018-07-27T02:36:09.228Z,94.93
2018-07-27T02:37:09.283Z,94.26
2018-07-27T02:38:09.352Z,94.45
2018-07-27T02:39:09.379Z,94.06
2018-07-27T02:40:09.482Z,95.03
2018-07-27T02:41:09.486Z,95.40
2018-07-27T02:42:09.530Z,95.50
2018-07-27T02:43:09.629Z,95.98
2018-07-27T02:44:09.632Z,94.93
2018-07-27T02:45:09.685Z,96.27
2018-07-27T02:46:09.733Z,96.17
2018-07-27T02:47:09.784Z,95.70
2018-07-27T02:48:09.864Z,96.37
2018-07-27T02:49:09.892Z,97.42
2018-07-27T02:50:09.940Z,96.94
2018-07-27T02:51:09.991Z,96.94
2018-07-27T02:52:10.040Z,96.56
2018-07-27T02:53:10.114Z,95.21
2018-07-27T02:54:10.139Z,96.08
2018-07-27T02:55:10.213Z,96.75
2018-07-27T02:56:10.242Z,96.56
2018-07-27T02:57:10.293Z,97.47
2018-07-27T02:58:10.377Z,97.66
2018-07-27T02:59:10.392Z,96.03
2018-07-27T03:00:10.446Z,97.09
2018-07-27T03:01:10.498Z,97.86
2018-07-27T03:02:10.545Z,98.14
2018-07-27T03:03:10.630Z,98.43
2018-07-27T03:04:10.647Z,97.96
2018-07-27T03:05:10.722Z,99.20
2018-07-27T03:06:10.749Z,98.14
2018-07-27T03:07:10.801Z,97.66
2018-07-27T03:08:10.851Z,97.57
2018-07-27T03:09:10.912Z,97.09
2018-07-27T03:10:10.977Z,97.66
2018-07-27T03:11:11.000Z,97.66
2018-07-27T03:12:11.051Z,98.24
2018-07-27T03:13:11.110Z,97.57
2018-07-27T03:14:11.152Z,97.57
2018-07-27T03:15:11.227Z,97.09
2018-07-27T03:16:11.253Z,97.47
2018-07-27T03:17:11.312Z,98.43
2018-07-27T03:18:11.358Z,98.63
2018-07-27T03:19:11.405Z,98.05
2018-07-27T03:20:11.481Z,96.99
2018-07-27T03:21:11.507Z,97.66
2018-07-27T03:22:11.560Z,97.66
2018-07-27T03:23:11.611Z,96.99
2018-07-27T03:24:11.663Z,97.96
2018-07-27T03:25:11.734Z,96.99
2018-07-27T03:26:11.760Z,96.47
2018-07-27T03:27:11.809Z,97.04
2018-07-27T03:28:11.862Z,97.91
2018-07-27T03:29:11.914Z,97.61
2018-07-27T03:30:11.993Z,96.94
2018-07-27T03:31:12.016Z,97.52
2018-07-27T03:32:12.065Z,98.77
2018-07-27T03:33:12.114Z,98.96
2018-07-27T03:34:12.167Z,99.05
2018-07-27T03:35:12.238Z,99.34
2018-07-27T03:36:12.290Z,98.58
2018-07-27T03:37:12.318Z,99.99
2018-07-27T03:38:12.381Z,99.63
2018-07-27T03:39:12.417Z,99.82
2018-07-27T03:40:12.468Z,98.29
2018-07-27T03:41:12.541Z,99.15
2018-07-27T03:42:12.595Z,99.54
2018-07-27T03:43:12.623Z,99.44
2018-07-27T03:44:12.670Z,99.63
2018-07-27T03:45:12.722Z,99.99
2018-07-27T03:46:12.795Z,99.25
2018-07-27T03:47:12.856Z,99.92
2018-07-27T03:48:12.872Z,99.99
2018-07-27T03:49:13.901Z,99.25
2018-07-27T03:50:12.971Z,98.38
2018-07-27T03:51:13.023Z,99.73
2018-07-27T03:52:13.434Z,99.54
2018-07-27T03:53:13.128Z,99.99
2018-07-27T03:54:13.172Z,99.99
2018-07-27T03:55:13.229Z,99.99
2018-07-27T03:56:13.274Z,99.99
2018-07-27T03:57:13.348Z,99.82
2018-07-27T03:58:14.107Z,99.73
2018-07-27T03:59:13.433Z,99.99
2018-07-27T04:00:13.476Z,99.99
2018-07-27T04:01:14.407Z,99.99
2018-07-27T04:02:13.634Z,99.99
2018-07-27T04:03:13.626Z,99.99
2018-07-27T04:04:13.681Z,99.99
2018-07-27T04:05:13.729Z,99.99
2018-07-27T04:06:13.779Z,99.99
2018-07-27T04:07:13.898Z,99.99
2018-07-27T04:08:13.878Z,99.99
2018-07-27T04:09:13.953Z,99.99
2018-07-27T04:10:13.980Z,99.99
2018-07-27T04:11:14.032Z,99.99
2018-07-27T04:12:14.080Z,99.99
2018-07-27T04:13:14.132Z,99.99
2018-07-27T04:14:14.204Z,99.99
2018-07-27T04:15:14.232Z,99.99
2018-07-27T04:16:14.286Z,99.99
2018-07-27T04:17:14.333Z,99.99
2018-07-27T04:18:14.422Z,99.99
2018-07-27T04:19:14.432Z,99.99
2018-07-27T04:20:14.483Z,99.99
2018-07-27T04:21:14.535Z,99.99
2018-07-27T04:22:14.584Z,99.99
2018-07-27T04:23:14.659Z,99.99
2018-07-27T04:24:14.710Z,99.99
2018-07-27T04:25:14.738Z,99.99
2018-07-27T04:26:14.787Z,99.99
2018-07-27T04:27:14.835Z,99.99
2018-07-27T04:28:14.891Z,99.99
2018-07-27T04:29:14.960Z,99.99
2018-07-27T04:30:15.013Z,99.99
2018-07-27T04:31:15.038Z,99.99
2018-07-27T04:32:15.086Z,99.99
2018-07-27T04:33:15.139Z,99.99
2018-07-27T04:34:15.223Z,99.99
2018-07-27T04:35:15.237Z,99.99
2018-07-27T04:36:15.288Z,99.99
2018-07-27T04:37:15.341Z,99.99
2018-07-27T04:38:15.393Z,99.99
2018-07-27T04:39:15.463Z,99.99
2018-07-27T04:40:15.514Z,99.99
2018-07-27T04:41:15.540Z,99.99
2018-07-27T04:42:15.594Z,99.99
2018-07-27T04:43:15.640Z,99.99
2018-07-27T04:44:15.720Z,99.99
2018-07-27T04:45:15.768Z,99.99
2018-07-27T04:46:15.793Z,99.99
2018-07-27T04:47:15.844Z,99.99
2018-07-27T04:48:15.892Z,99.99
2018-07-27T04:49:15.975Z,99.99
2018-07-27T04:50:16.017Z,99.99
2018-07-27T04:51:16.043Z,99.99
2018-07-27T04:52:16.094Z,99.99
2018-07-27T04:53:16.145Z,99.99
2018-07-27T04:54:16.196Z,99.99
2018-07-27T04:55:16.269Z,99.99
2018-07-27T04:56:16.385Z,99.99
2018-07-27T04:57:16.346Z,99.99
2018-07-27T04:58:16.400Z,99.99
2018-07-27T04:59:16.446Z,99.99
2018-07-27T05:00:16.523Z,99.99
2018-07-27T05:01:16.572Z,99.99
2018-07-27T05:02:16.650Z,99.99
2018-07-27T05:03:16.650Z,99.99
2018-07-27T05:04:16.707Z,99.99
2018-07-27T05:05:16.752Z,99.99
2018-07-27T05:06:16.824Z,99.99
2018-07-27T05:07:16.859Z,99.99
2018-07-27T05:08:16.900Z,99.92
2018-07-27T05:09:16.951Z,99.73
2018-07-27T05:10:17.033Z,99.87
2018-07-27T05:11:17.057Z,99.99
2018-07-27T05:12:17.103Z,99.99
2018-07-27T05:13:17.157Z,99.99
2018-07-27T05:14:17.204Z,99.99
2018-07-27T05:15:17.276Z,99.68
2018-07-27T05:16:17.303Z,99.99
2018-07-27T05:17:17.379Z,99.99
2018-07-27T05:18:17.422Z,98.14
2018-07-27T05:19:17.455Z,99.99
2018-07-27T05:20:17.508Z,99.99
2018-07-27T05:21:17.559Z,99.99
2018-07-27T05:22:17.630Z,99.99
2018-07-27T05:23:17.663Z,97.19
2018-07-27T05:24:17.707Z,98.29
2018-07-27T05:25:17.758Z,97.33
2018-07-27T05:26:17.835Z,96.85
2018-07-27T05:27:17.867Z,98.48
2018-07-27T05:28:17.914Z,99.99
2018-07-27T05:29:17.960Z,98.48
2018-07-27T05:30:18.012Z,98.58
2018-07-27T05:31:18.088Z,96.66
2018-07-27T05:32:18.135Z,99.92
2018-07-27T05:33:18.163Z,99.15
2018-07-27T05:34:18.253Z,96.03
2018-07-27T05:35:18.267Z,96.22
2018-07-27T05:36:18.313Z,96.99
2018-07-27T05:37:18.397Z,96.42
2018-07-27T05:38:18.416Z,95.84
2018-07-27T05:39:18.467Z,93.91
2018-07-27T05:40:18.522Z,95.31
2018-07-27T05:41:19.130Z,96.47
2018-07-27T05:42:18.652Z,93.87
2018-07-27T05:43:18.669Z,95.70
2018-07-27T05:44:18.718Z,96.37
2018-07-27T05:45:18.770Z,98.00
2018-07-27T05:46:18.819Z,96.27
2018-07-27T05:47:18.895Z,95.50
2018-07-27T05:48:18.953Z,96.75
2018-07-27T05:49:18.973Z,97.91
2018-07-27T05:50:19.023Z,95.70
2018-07-27T05:51:19.078Z,95.98
2018-07-27T05:52:19.125Z,94.45
2018-07-27T05:53:19.203Z,94.83
2018-07-27T05:54:19.232Z,95.21
2018-07-27T05:55:19.282Z,93.58
2018-07-27T05:56:19.331Z,92.61
2018-07-27T05:57:19.381Z,94.59
2018-07-27T05:58:19.467Z,92.08
2018-07-27T05:59:19.519Z,91.80
2018-07-27T06:00:19.543Z,90.93
2018-07-27T06:01:19.590Z,93.72
2018-07-27T06:02:22.072Z,93.15
2018-07-27T06:03:19.717Z,96.51
2018-07-27T06:04:19.737Z,94.49
2018-07-27T06:05:20.636Z,93.91
2018-07-27T06:06:19.839Z,92.18
2018-07-27T06:07:19.889Z,92.13
2018-07-27T06:08:19.966Z,90.69
2018-07-27T06:09:20.025Z,89.43
2018-07-27T06:10:20.046Z,87.90
2018-07-27T06:11:20.095Z,87.03
2018-07-27T06:12:20.146Z,87.36
2018-07-27T06:13:20.198Z,84.86
2018-07-27T06:14:20.278Z,86.78
2018-07-27T06:15:20.308Z,87.26
2018-07-27T06:16:20.352Z,88.23
2018-07-27T06:17:20.405Z,86.88
2018-07-27T06:18:20.467Z,86.49
2018-07-27T06:19:20.548Z,86.30
2018-07-27T06:20:20.558Z,85.57
2018-07-27T06:21:21.176Z,86.05
2018-07-27T06:22:20.658Z,86.92
2018-07-27T06:23:20.714Z,86.92
2018-07-27T06:24:20.851Z,85.47
2018-07-27T06:25:20.840Z,85.28
2018-07-27T06:26:20.865Z,87.30
2018-07-27T06:27:20.917Z,86.77
2018-07-27T06:28:20.969Z,85.33
2018-07-27T06:29:21.038Z,86.19
2018-07-27T06:30:21.093Z,86.29
2018-07-27T06:31:21.122Z,86.48
2018-07-27T06:32:21.176Z,85.03
2018-07-27T06:33:21.226Z,84.36
2018-07-27T06:34:21.277Z,83.88
2018-07-27T06:35:21.355Z,84.55
2018-07-27T06:36:21.381Z,83.88
2018-07-27T06:37:21.433Z,83.69
2018-07-27T06:38:21.483Z,83.50
2018-07-27T06:39:21.537Z,82.96
2018-07-27T06:40:21.611Z,82.76
2018-07-27T06:41:21.643Z,83.44
2018-07-27T06:42:21.692Z,84.89
2018-07-27T06:43:21.746Z,82.67
2018-07-27T06:44:21.799Z,81.84
2018-07-27T06:45:21.921Z,82.13
2018-07-27T06:46:21.940Z,82.61
2018-07-27T06:47:21.954Z,82.61
2018-07-27T06:48:22.006Z,82.42
2018-07-27T06:49:22.055Z,82.81
2018-07-27T06:50:22.112Z,81.55
2018-07-27T06:51:22.203Z,81.11
2018-07-27T06:52:22.229Z,80.14
2018-07-27T06:53:22.271Z,78.48
2018-07-27T06:54:22.316Z,75.71
2018-07-27T06:55:22.370Z,73.66
2018-07-27T06:56:22.447Z,72.34
2018-07-27T06:57:22.475Z,70.79
2018-07-27T06:58:22.527Z,69.76
2018-07-27T06:59:22.580Z,69.24
2018-07-27T07:00:22.634Z,67.73
2018-07-27T07:01:22.718Z,66.66
2018-07-27T07:02:22.746Z,66.56
2018-07-27T07:03:22.842Z,66.95
2018-07-27T07:04:22.846Z,66.37
2018-07-27T07:05:22.909Z,66.66
2018-07-27T07:06:22.983Z,66.11
2018-07-27T07:07:23.012Z,66.40
2018-07-27T07:08:23.057Z,64.81
2018-07-27T07:09:23.113Z,63.87
2018-07-27T07:10:23.167Z,63.10
2018-07-27T07:11:23.245Z,61.77
2018-07-27T07:12:23.296Z,62.41
2018-07-27T07:13:23.329Z,63.00
2018-07-27T07:14:23.395Z,63.62
2018-07-27T07:15:23.435Z,65.24
2018-07-27T07:16:23.487Z,66.02
2018-07-27T07:17:24.163Z,66.17
2018-07-27T07:18:23.598Z,66.34
2018-07-27T07:19:23.652Z,66.66
2018-07-27T07:20:23.706Z,65.79
2018-07-27T07:21:23.760Z,65.89
2018-07-27T07:22:23.858Z,64.17
2018-07-27T07:23:23.866Z,63.36
2018-07-27T07:24:23.923Z,62.51
2018-07-27T07:25:24.060Z,60.79
2018-07-27T07:26:24.033Z,60.31
2018-07-27T07:27:24.118Z,59.66
2018-07-27T07:28:24.138Z,59.88
2018-07-27T07:29:24.192Z,59.72
2018-07-27T07:30:24.266Z,58.28
2018-07-27T07:31:24.304Z,57.70
2018-07-27T07:32:24.388Z,58.42
2018-07-27T07:33:24.413Z,59.03
2018-07-27T07:34:24.470Z,58.51
2018-07-27T07:35:24.524Z,58.91
2018-07-27T07:36:24.574Z,59.39
2018-07-27T07:37:24.654Z,58.97
2018-07-27T07:38:24.726Z,59.78
2018-07-27T07:39:24.741Z,58.84
2018-07-27T07:40:24.802Z,57.60
2018-07-27T07:41:24.849Z,56.87
2018-07-27T07:42:24.907Z,57.06
2018-07-27T07:43:25.000Z,60.31
2018-07-27T07:44:25.017Z,59.88
2018-07-27T07:45:25.076Z,58.81
2018-07-27T07:46:25.127Z,59.36
2018-07-27T07:47:25.184Z,60.27
2018-07-27T07:48:25.267Z,59.59
2018-07-27T07:49:25.322Z,60.05
2018-07-27T07:50:25.348Z,59.42
2018-07-27T07:51:25.405Z,59.00
2018-07-27T07:52:25.464Z,60.60
2018-07-27T07:53:25.572Z,61.64
2018-07-27T07:54:25.574Z,63.55
2018-07-27T07:55:25.628Z,64.69
2018-07-27T07:56:25.685Z,65.92
2018-07-27T07:57:25.741Z,64.69
2018-07-27T07:58:25.817Z,65.37
2018-07-27T07:59:25.873Z,64.14
2018-07-27T08:00:25.908Z,64.75
2018-07-27T08:01:25.963Z,63.49
2018-07-27T08:02:26.017Z,63.71
2018-07-27T08:03:26.074Z,62.96
2018-07-27T08:04:26.253Z,63.19
2018-07-27T08:05:26.259Z,60.56
2018-07-27T08:06:26.236Z,60.49
2018-07-27T08:07:26.292Z,59.67
2018-07-27T08:08:26.376Z,57.43
2018-07-27T08:09:26.428Z,57.14
2018-07-27T08:10:26.495Z,56.92
2018-07-27T08:11:26.514Z,57.76
2018-07-27T08:12:26.574Z,57.96
2018-07-27T08:13:26.627Z,58.22
2018-07-27T08:14:26.682Z,59.85
2018-07-27T08:15:26.761Z,59.66
2018-07-27T08:16:26.797Z,61.11
2018-07-27T08:17:26.850Z,60.30
2018-07-27T08:18:26.905Z,59.03
2018-07-27T08:19:26.960Z,59.45
2018-07-27T08:20:27.039Z,61.40
2018-07-27T08:21:27.081Z,60.10
2018-07-27T08:22:27.129Z,59.81
2018-07-27T08:23:27.185Z,59.42
2018-07-27T08:24:27.241Z,59.49
2018-07-27T08:25:27.323Z,59.81
2018-07-27T08:26:27.354Z,59.10
2018-07-27T08:27:27.410Z,60.98
2018-07-27T08:28:27.464Z,58.89
2018-07-27T08:29:27.523Z,58.94
2018-07-27T08:30:27.601Z,60.23
2018-07-27T08:31:27.634Z,58.84
2018-07-27T08:32:27.707Z,60.78
2018-07-27T08:33:27.752Z,58.61
2018-07-27T08:34:27.802Z,58.71
2018-07-27T08:35:27.897Z,60.31
2018-07-27T08:36:27.917Z,62.48
2018-07-27T08:37:27.974Z,64.46
2018-07-27T08:38:28.031Z,66.02
2018-07-27T08:39:28.085Z,66.47
2018-07-27T08:40:28.171Z,64.33
2018-07-27T08:41:28.200Z,64.40
2018-07-27T08:42:28.254Z,64.78
2018-07-27T08:43:28.311Z,64.11
2018-07-27T08:44:28.367Z,65.17
2018-07-27T08:45:28.445Z,66.37
2018-07-27T08:46:28.482Z,65.43
2018-07-27T08:47:28.560Z,63.26
2018-07-27T08:48:28.596Z,64.36
2018-07-27T08:49:28.650Z,66.17
2018-07-27T08:50:28.705Z,61.93
2018-07-27T08:51:28.766Z,63.97
2018-07-27T08:52:28.836Z,63.68
2018-07-27T08:53:28.872Z,63.90
2018-07-27T08:54:28.924Z,63.94
2018-07-27T08:55:28.981Z,62.09
2018-07-27T08:56:29.036Z,61.76
2018-07-27T08:57:29.124Z,62.22
2018-07-27T08:58:29.151Z,63.90
2018-07-27T08:59:29.212Z,62.41
2018-07-27T09:00:29.263Z,63.00
2018-07-27T09:01:29.318Z,63.35
2018-07-27T09:02:29.415Z,62.67
2018-07-27T09:03:29.429Z,62.38
2018-07-27T09:04:29.485Z,61.83
2018-07-27T09:05:29.543Z,60.08
2018-07-27T09:06:29.602Z,59.81
2018-07-27T09:07:29.688Z,60.59
2018-07-27T09:08:29.712Z,59.62
2018-07-27T09:09:29.768Z,63.22
2018-07-27T09:10:29.828Z,62.02
2018-07-27T09:11:29.884Z,63.23
2018-07-27T09:12:29.969Z,64.29
2018-07-27T09:13:29.994Z,64.26
2018-07-27T09:14:30.057Z,65.23
2018-07-27T09:15:30.107Z,66.89
2018-07-27T09:16:30.165Z,68.08
2018-07-27T09:17:30.245Z,66.27
2018-07-27T09:18:30.283Z,67.02
2018-07-27T09:19:30.366Z,64.78
2018-07-27T09:20:30.393Z,64.59
2018-07-27T09:21:30.448Z,64.81
2018-07-27T09:22:30.503Z,64.55
2018-07-27T09:23:30.561Z,65.33
2018-07-27T09:24:30.727Z,66.08
2018-07-27T09:25:30.680Z,67.99
2018-07-27T09:26:30.741Z,69.06
2018-07-27T09:27:30.788Z,67.99
2018-07-27T09:28:30.845Z,69.67
2018-07-27T09:29:30.928Z,67.99
2018-07-27T09:30:30.956Z,66.41
2018-07-27T09:31:31.073Z,63.87
2018-07-27T09:32:31.074Z,64.07
2018-07-27T09:33:31.127Z,67.34
2018-07-27T09:34:31.213Z,68.08
2018-07-27T09:35:31.301Z,67.54
2018-07-27T09:36:31.322Z,66.21
2018-07-27T09:37:31.355Z,66.93
2018-07-27T09:38:31.418Z,67.99
2018-07-27T09:39:31.470Z,64.39
2018-07-27T09:40:31.529Z,67.83
2018-07-27T09:41:31.606Z,65.11
2018-07-27T09:42:31.638Z,65.11
2018-07-27T09:43:31.693Z,64.52
2018-07-27T09:44:31.751Z,67.18
2018-07-27T09:45:31.839Z,64.32
2018-07-27T09:46:31.897Z,63.84
2018-07-27T09:47:31.921Z,63.87
2018-07-27T09:48:31.979Z,65.82
2018-07-27T09:49:32.037Z,67.41
2018-07-27T09:50:32.130Z,68.67
2018-07-27T09:51:32.165Z,71.33
2018-07-27T09:52:32.207Z,66.63
2018-07-27T09:53:32.264Z,67.44
2018-07-27T09:54:32.324Z,67.60
2018-07-27T09:55:32.412Z,68.54
2018-07-27T09:56:32.437Z,69.15
2018-07-27T09:57:32.527Z,68.38
2018-07-27T09:58:32.549Z,66.76
2018-07-27T09:59:32.618Z,67.44
2018-07-27T10:00:32.708Z,68.44
2018-07-27T10:01:32.719Z,67.70
2018-07-27T10:02:32.773Z,66.05
2018-07-27T10:03:32.831Z,70.26
2018-07-27T10:04:32.888Z,67.08
2018-07-27T10:05:32.984Z,62.80
2018-07-27T10:06:33.003Z,62.35
2018-07-27T10:07:33.058Z,63.10
2018-07-27T10:08:33.119Z,64.88
2018-07-27T10:09:33.173Z,65.08
2018-07-27T10:10:33.259Z,63.75
2018-07-27T10:11:33.287Z,59.53
2018-07-27T10:12:33.351Z,59.82
2018-07-27T10:13:33.407Z,62.48
2018-07-27T10:14:33.458Z,59.82
2018-07-27T10:15:33.547Z,60.79
2018-07-27T10:16:33.575Z,62.51
2018-07-27T10:17:33.633Z,61.28
2018-07-27T10:18:33.748Z,62.19
2018-07-27T10:19:33.770Z,62.71
2018-07-27T10:20:33.815Z,64.36
2018-07-27T10:21:33.862Z,66.08
2018-07-27T10:22:33.917Z,67.05
2018-07-27T10:23:33.974Z,67.11
2018-07-27T10:24:34.751Z,65.01
2018-07-27T10:25:34.092Z,64.55
2018-07-27T10:26:34.149Z,62.76
2018-07-27T10:27:34.203Z,63.38
2018-07-27T10:28:34.261Z,61.89
2018-07-27T10:29:34.343Z,61.96
2018-07-27T10:30:34.377Z,63.93
2018-07-27T10:31:34.433Z,63.15
2018-07-27T10:32:34.493Z,63.28
2018-07-27T10:33:34.550Z,63.87
2018-07-27T10:34:34.638Z,61.18
2018-07-27T10:35:34.665Z,61.86
2018-07-27T10:36:34.747Z,62.57
2018-07-27T10:37:34.779Z,60.33
2018-07-27T10:38:34.915Z,61.47
2018-07-27T10:39:34.911Z,61.83
2018-07-27T10:40:34.951Z,63.29
2018-07-27T10:41:35.038Z,63.94
2018-07-27T10:42:35.070Z,64.39
2018-07-27T10:43:35.127Z,65.17
2018-07-27T10:44:35.183Z,65.23
2018-07-27T10:45:35.596Z,65.23
2018-07-27T10:46:35.301Z,65.85
2018-07-27T10:47:35.358Z,66.05
2018-07-27T10:48:35.417Z,64.10
2018-07-27T10:49:35.474Z,65.23
2018-07-27T10:50:35.552Z,64.91
2018-07-27T10:51:35.625Z,63.78
2018-07-27T10:52:35.645Z,64.49
2018-07-27T10:53:35.704Z,65.20
2018-07-27T10:54:35.760Z,65.08
2018-07-27T10:55:35.815Z,64.94
2018-07-27T10:56:35.905Z,63.51
2018-07-27T10:57:35.942Z,61.82
2018-07-27T10:58:35.993Z,59.48
2018-07-27T10:59:36.046Z,60.82
2018-07-27T11:00:36.104Z,59.72
2018-07-27T11:01:36.194Z,61.18
2018-07-27T11:02:36.218Z,61.96
2018-07-27T11:03:36.279Z,63.54
2018-07-27T11:04:36.332Z,61.56
2018-07-27T11:05:36.396Z,61.36
2018-07-27T11:06:36.473Z,58.35
2018-07-27T11:07:37.794Z,60.88
2018-07-27T11:08:36.566Z,59.74
2018-07-27T11:09:36.623Z,58.02
2018-07-27T11:10:36.681Z,56.68
2018-07-27T11:11:36.774Z,60.06
2018-07-27T11:12:36.801Z,56.05
2018-07-27T11:13:36.856Z,56.93
2018-07-27T11:14:36.920Z,59.02
2018-07-27T11:15:36.972Z,59.25
2018-07-27T11:16:37.058Z,58.50
2018-07-27T11:17:37.132Z,55.63
2018-07-27T11:18:37.170Z,59.41
2018-07-27T11:19:37.206Z,58.02
2018-07-27T11:20:37.264Z,59.45
2018-07-27T11:21:37.323Z,58.38
2018-07-27T11:22:37.385Z,58.99
2018-07-27T11:23:37.465Z,55.80
2018-07-27T11:24:37.500Z,56.72
2018-07-27T11:25:37.575Z,60.03
2018-07-27T11:26:37.618Z,61.82
2018-07-27T11:27:37.674Z,60.78
2018-07-27T11:28:37.778Z,59.97
2018-07-27T11:29:37.791Z,59.81
2018-07-27T11:30:37.851Z,62.54
2018-07-27T11:31:37.910Z,63.25
2018-07-27T11:32:37.969Z,63.84
2018-07-27T11:33:38.051Z,62.15
2018-07-27T11:34:38.085Z,62.05
2018-07-27T11:35:38.147Z,61.50
2018-07-27T11:36:38.204Z,58.80
2018-07-27T11:37:38.265Z,62.12
2018-07-27T11:38:38.347Z,61.40
2018-07-27T11:39:38.379Z,59.54
2018-07-27T11:40:38.442Z,59.15
2018-07-27T11:41:38.508Z,57.68
2018-07-27T11:42:38.570Z,57.88
2018-07-27T11:43:38.648Z,58.72
2018-07-27T11:44:38.675Z,55.22
2018-07-27T11:45:38.736Z,56.13
2018-07-27T11:46:38.794Z,59.69
2018-07-27T11:47:38.853Z,54.89
2018-07-27T11:48:38.937Z,52.37
2018-07-27T11:49:39.006Z,55.92
2018-07-27T11:50:39.033Z,53.40
2018-07-27T11:51:39.091Z,52.42
2018-07-27T11:52:39.152Z,53.72
2018-07-27T11:53:39.209Z,55.87
2018-07-27T11:54:39.296Z,56.01
2018-07-27T11:55:39.331Z,55.47
2018-07-27T11:56:39.392Z,57.68
2018-07-27T11:57:39.449Z,59.67
2018-07-27T11:58:39.513Z,57.93
2018-07-27T11:59:39.597Z,56.47
2018-07-27T12:00:39.660Z,56.76
2018-07-27T12:01:39.697Z,57.77
2018-07-27T12:02:39.754Z,55.62
2018-07-27T12:03:39.812Z,55.71
2018-07-27T12:04:39.873Z,55.62
2018-07-27T12:05:39.957Z,56.74
2018-07-27T12:06:40.007Z,57.32
2018-07-27T12:07:40.057Z,60.11
2018-07-27T12:08:40.115Z,57.53
2018-07-27T12:09:40.174Z,55.70
2018-07-27T12:10:40.256Z,53.18
2018-07-27T12:11:40.296Z,52.72
2018-07-27T12:12:40.354Z,52.15
2018-07-27T12:13:40.467Z,51.37
2018-07-27T12:14:40.661Z,53.36
2018-07-27T12:15:40.560Z,51.62
2018-07-27T12:16:40.597Z,47.96
2018-07-27T12:17:40.666Z,49.07
2018-07-27T12:18:40.718Z,45.34
2018-07-27T12:19:40.781Z,46.47
2018-07-27T12:20:40.887Z,47.64
2018-07-27T12:21:41.085Z,46.76
2018-07-27T12:22:40.965Z,48.16
2018-07-27T12:23:41.040Z,46.71
2018-07-27T12:24:41.091Z,46.17
2018-07-27T12:25:41.183Z,45.09
2018-07-27T12:26:41.258Z,46.42
2018-07-27T12:27:41.276Z,46.59
2018-07-27T12:28:41.337Z,47.79
2018-07-27T12:29:41.400Z,48.43
2018-07-27T12:30:41.462Z,49.26
2018-07-27T12:31:41.577Z,52.10
2018-07-27T12:32:41.613Z,52.49
2018-07-27T12:33:41.653Z,52.05
2018-07-27T12:34:41.711Z,55.00
2018-07-27T12:35:41.779Z,53.20
2018-07-27T12:36:41.857Z,53.33
2018-07-27T12:37:41.925Z,51.46
2018-07-27T12:38:41.957Z,52.86
2018-07-27T12:39:42.021Z,50.39
2018-07-27T12:40:42.083Z,49.41
2018-07-27T12:41:42.146Z,49.68
2018-07-27T12:42:42.241Z,50.24
2018-07-27T12:43:42.269Z,50.66
2018-07-27T12:44:42.329Z,50.76
2018-07-27T12:45:42.393Z,51.37
2018-07-27T12:46:42.450Z,47.26
2018-07-27T12:47:42.536Z,48.85
2018-07-27T12:48:42.575Z,48.87
2018-07-27T12:49:42.640Z,46.20
2018-07-27T12:50:42.697Z,46.72
2018-07-27T12:51:42.762Z,45.64
2018-07-27T12:52:42.859Z,45.93